createdAt,value
2023-04-27T00:01:53.220Z,86.49
2023-04-27T00:04:21.811Z,87.18
2023-04-27T00:06:50.629Z,86.42
2023-04-27T00:09:20.243Z,85.67
2023-04-27T00:11:48.500Z,87.96
2023-04-27T00:14:16.789Z,86.93
2023-04-27T00:16:45.309Z,89.90
2023-04-27T00:19:14.080Z,90.79
2023-04-27T00:21:42.871Z,89.05
2023-04-27T00:24:11.119Z,88.41
2023-04-27T00:26:40.698Z,90.44
2023-04-27T00:29:08.980Z,88.25
2023-04-27T00:31:37.272Z,88.44
2023-04-27T00:34:05.549Z,88.82
2023-04-27T00:36:35.103Z,88.63
2023-04-27T00:39:04.672Z,88.98
2023-04-27T00:41:33.786Z,87.08
2023-04-27T00:44:03.370Z,87.67
2023-04-27T00:46:31.798Z,86.38
2023-04-27T00:49:01.498Z,85.90
2023-04-27T00:51:30.266Z,85.96
2023-04-27T00:53:59.811Z,85.15
2023-04-27T00:56:28.108Z,86.20
2023-04-27T00:58:56.924Z,84.18
2023-04-27T01:01:28.001Z,85.43
2023-04-27T01:03:56.430Z,85.26
2023-04-27T01:06:24.871Z,83.28
2023-04-27T01:08:53.484Z,85.44
2023-04-27T01:11:23.524Z,83.51
2023-04-27T01:13:52.552Z,81.97
2023-04-27T01:16:21.133Z,83.98
2023-04-27T01:18:50.810Z,83.05
2023-04-27T01:21:19.081Z,81.44
2023-04-27T01:23:48.878Z,80.71
2023-04-27T01:26:17.483Z,80.63
2023-04-27T01:28:45.859Z,79.67
2023-04-27T01:31:15.061Z,81.39
2023-04-27T01:33:43.735Z,79.78
2023-04-27T01:36:12.072Z,80.09
2023-04-27T01:38:41.101Z,80.59
2023-04-27T01:41:10.755Z,80.39
2023-04-27T01:43:39.102Z,82.01
2023-04-27T01:46:08.120Z,80.20
2023-04-27T01:48:37.061Z,80.91
2023-04-27T01:51:05.689Z,79.75
2023-04-27T01:53:34.391Z,80.98
2023-04-27T01:56:03.528Z,80.94
2023-04-27T01:58:36.002Z,80.51
2023-04-27T02:01:04.600Z,78.70
2023-04-27T02:03:33.094Z,80.79
2023-04-27T02:06:01.681Z,81.03
2023-04-27T02:08:30.032Z,80.25
2023-04-27T02:10:58.344Z,81.55
2023-04-27T02:13:26.585Z,80.43
2023-04-27T02:15:56.870Z,81.45
2023-04-27T02:18:25.403Z,80.94
2023-04-27T02:20:53.678Z,82.54
2023-04-27T02:23:22.291Z,82.17
2023-04-27T02:25:50.574Z,80.94
2023-04-27T02:28:18.807Z,81.72
2023-04-27T02:30:47.803Z,81.39
2023-04-27T02:33:17.469Z,82.83
2023-04-27T02:35:46.084Z,83.10
2023-04-27T02:38:14.320Z,81.46
2023-04-27T02:40:44.327Z,81.95
2023-04-27T02:43:12.878Z,81.88
2023-04-27T02:45:41.461Z,83.48
2023-04-27T02:48:09.813Z,82.81
2023-04-27T02:50:43.176Z,83.05
2023-04-27T02:53:12.042Z,82.94
2023-04-27T02:55:40.530Z,81.75
2023-04-27T02:58:08.805Z,81.78
2023-04-27T03:00:37.424Z,81.47
2023-04-27T03:03:06.577Z,82.40
2023-04-27T03:05:35.206Z,82.13
2023-04-27T03:08:05.060Z,80.71
2023-04-27T03:10:33.431Z,81.56
2023-04-27T03:13:01.660Z,81.94
2023-04-27T03:15:29.929Z,81.97
2023-04-27T03:17:58.309Z,80.67
2023-04-27T03:20:26.783Z,81.22
2023-04-27T03:22:55.430Z,81.06
2023-04-27T03:25:25.414Z,78.69
2023-04-27T03:27:53.689Z,80.14
2023-04-27T03:30:23.936Z,80.15
2023-04-27T03:32:52.278Z,79.39
2023-04-27T03:35:20.819Z,79.55
2023-04-27T03:37:49.076Z,78.55
2023-04-27T03:40:17.459Z,78.40
2023-04-27T03:42:47.124Z,78.46
2023-04-27T03:45:16.793Z,78.60
2023-04-27T03:47:45.329Z,78.51
2023-04-27T03:50:16.325Z,76.73
2023-04-27T03:52:44.747Z,78.08
2023-04-27T03:55:13.560Z,78.63
2023-04-27T03:57:43.568Z,79.41
2023-04-27T04:00:14.794Z,79.68
2023-04-27T04:02:44.046Z,80.44
2023-04-27T04:05:14.857Z,79.65
2023-04-27T04:07:45.992Z,80.33
2023-04-27T04:10:14.559Z,79.84
2023-04-27T04:12:42.970Z,81.32
2023-04-27T04:15:11.552Z,80.00
2023-04-27T04:17:41.478Z,80.20
2023-04-27T04:20:10.859Z,80.55
2023-04-27T04:22:39.513Z,81.28
2023-04-27T04:25:09.662Z,80.78
2023-04-27T04:27:38.564Z,80.99
2023-04-27T04:30:08.504Z,80.77
2023-04-27T04:32:38.869Z,79.69
2023-04-27T04:35:09.626Z,80.87
2023-04-27T04:37:38.087Z,80.42
2023-04-27T04:40:10.117Z,79.79
2023-04-27T04:42:40.548Z,78.77
2023-04-27T04:45:11.079Z,77.64
2023-04-27T04:47:39.713Z,78.60
2023-04-27T04:50:10.648Z,79.76
2023-04-27T04:52:39.049Z,78.56
2023-04-27T04:55:08.191Z,79.15
2023-04-27T04:57:36.738Z,79.19
2023-04-27T05:00:12.462Z,79.87
2023-04-27T05:02:41.711Z,79.40
2023-04-27T05:05:11.746Z,79.75
2023-04-27T05:07:40.531Z,79.08
2023-04-27T05:10:09.490Z,79.74
2023-04-27T05:12:37.751Z,78.65
2023-04-27T05:15:06.959Z,79.41
2023-04-27T05:17:35.178Z,80.86
2023-04-27T05:20:05.015Z,81.65
2023-04-27T05:22:34.901Z,82.01
2023-04-27T05:25:03.486Z,83.99
2023-04-27T05:27:31.839Z,83.02
2023-04-27T05:30:00.194Z,86.07
2023-04-27T05:32:28.414Z,85.98
2023-04-27T05:34:56.631Z,85.32
2023-04-27T05:37:24.992Z,88.21
2023-04-27T05:39:54.613Z,88.03
2023-04-27T05:42:22.815Z,86.67
2023-04-27T05:44:51.175Z,88.84
2023-04-27T05:47:19.390Z,88.45
2023-04-27T05:49:51.975Z,88.30
2023-04-27T05:52:20.283Z,89.34
2023-04-27T05:54:48.916Z,91.31
2023-04-27T05:57:18.736Z,88.35
2023-04-27T05:59:46.957Z,89.89
2023-04-27T06:02:17.665Z,91.09
2023-04-27T06:04:46.548Z,89.88
2023-04-27T06:07:16.524Z,92.67
2023-04-27T06:09:44.821Z,92.95
2023-04-27T06:12:13.134Z,92.84
2023-04-27T06:14:42.717Z,93.99
2023-04-27T06:17:11.216Z,93.56
2023-04-27T06:19:39.451Z,92.94
2023-04-27T06:22:07.741Z,94.56
2023-04-27T06:24:36.590Z,94.14
2023-04-27T06:27:05.001Z,96.37
2023-04-27T06:29:33.382Z,94.42
2023-04-27T06:32:06.523Z,94.69
2023-04-27T06:34:35.288Z,97.39
2023-04-27T06:37:03.547Z,97.52
2023-04-27T06:39:32.142Z,95.39
2023-04-27T06:42:00.424Z,93.46
2023-04-27T06:44:28.634Z,95.44
2023-04-27T06:46:56.862Z,97.39
2023-04-27T06:49:26.759Z,94.85
2023-04-27T06:51:55.084Z,94.07
2023-04-27T06:54:23.317Z,97.24
2023-04-27T06:56:51.776Z,97.91
2023-04-27T06:59:20.065Z,99.54
2023-04-27T07:01:48.425Z,99.03
2023-04-27T07:04:16.917Z,98.87
2023-04-27T07:06:46.634Z,99.16
2023-04-27T07:09:26.524Z,97.44
2023-04-27T07:11:55.756Z,100.62
2023-04-27T07:14:24.045Z,100.25
2023-04-27T07:16:52.293Z,99.19
2023-04-27T07:19:20.632Z,101.45
2023-04-27T07:21:50.352Z,98.94
2023-04-27T07:24:18.568Z,100.47
2023-04-27T07:26:46.927Z,102.23
2023-04-27T07:29:26.502Z,100.12
2023-04-27T07:31:56.726Z,101.80
2023-04-27T07:34:25.189Z,101.54
2023-04-27T07:36:55.102Z,101.19
2023-04-27T07:39:24.037Z,101.83
2023-04-27T07:41:52.709Z,101.80
2023-04-27T07:44:21.112Z,102.72
2023-04-27T07:46:50.193Z,100.94
2023-04-27T07:49:18.497Z,102.17
2023-04-27T07:51:46.935Z,102.13
2023-04-27T07:54:16.487Z,100.56
2023-04-27T07:56:44.810Z,102.17
2023-04-27T07:59:14.893Z,100.73
2023-04-27T08:01:43.409Z,101.72
2023-04-27T08:04:13.059Z,99.80
2023-04-27T08:06:42.099Z,99.40
2023-04-27T08:09:11.319Z,99.88
2023-04-27T08:11:41.325Z,98.58
2023-04-27T08:14:13.611Z,98.89
2023-04-27T08:16:42.781Z,99.71
2023-04-27T08:19:11.692Z,99.68
2023-04-27T08:21:40.165Z,99.72
2023-04-27T08:24:08.674Z,98.35
2023-04-27T08:26:36.992Z,97.96
2023-04-27T08:29:19.499Z,99.03
2023-04-27T08:31:56.752Z,98.50
2023-04-27T08:34:25.365Z,98.01
2023-04-27T08:36:53.995Z,96.18
2023-04-27T08:39:22.510Z,96.42
2023-04-27T08:41:50.817Z,97.16
2023-04-27T08:44:20.638Z,97.37
2023-04-27T08:46:52.325Z,94.65
2023-04-27T08:49:21.716Z,93.85
2023-04-27T08:51:50.326Z,93.95
2023-04-27T08:54:20.087Z,93.08
2023-04-27T08:56:48.324Z,93.08
2023-04-27T08:59:17.842Z,93.24
2023-04-27T09:01:49.486Z,91.38
2023-04-27T09:04:19.841Z,91.50
2023-04-27T09:06:49.780Z,89.59
2023-04-27T09:09:25.218Z,88.04
2023-04-27T09:11:53.593Z,88.77
2023-04-27T09:14:23.663Z,88.87
2023-04-27T09:16:59.326Z,85.32
2023-04-27T09:19:28.691Z,87.44
2023-04-27T09:22:07.810Z,86.73
2023-04-27T09:24:36.221Z,86.93
2023-04-27T09:27:05.155Z,85.30
2023-04-27T09:29:34.919Z,84.26
2023-04-27T09:32:17.244Z,86.54
2023-04-27T09:34:46.459Z,84.38
2023-04-27T09:37:15.808Z,84.41
2023-04-27T09:39:44.301Z,82.84
2023-04-27T09:42:13.415Z,82.14
2023-04-27T09:44:41.655Z,83.78
2023-04-27T09:47:12.193Z,82.13
2023-04-27T09:49:43.350Z,81.15
2023-04-27T09:52:11.799Z,81.42
2023-04-27T09:54:40.934Z,79.59
2023-04-27T09:57:18.958Z,78.95
2023-04-27T10:00:00.912Z,79.17
2023-04-27T10:02:49.965Z,78.94
2023-04-27T10:05:37.144Z,79.12
2023-04-27T10:08:07.200Z,77.72
2023-04-27T10:10:44.639Z,76.71
2023-04-27T10:13:22.943Z,76.24
2023-04-27T10:15:52.418Z,77.35
2023-04-27T10:18:30.637Z,76.38
2023-04-27T10:21:10.736Z,75.44
2023-04-27T10:23:48.434Z,76.44
2023-04-27T10:26:23.639Z,78.93
2023-04-27T10:28:59.740Z,78.97
2023-04-27T10:31:31.326Z,78.43
2023-04-27T10:34:11.625Z,78.51
2023-04-27T10:36:41.267Z,76.99
2023-04-27T10:39:17.617Z,74.22
2023-04-27T10:41:54.344Z,75.95
2023-04-27T10:44:29.562Z,75.20
2023-04-27T10:46:59.816Z,74.89
2023-04-27T10:49:30.386Z,77.92
2023-04-27T10:52:00.825Z,78.24
2023-04-27T10:54:29.612Z,76.44
2023-04-27T10:57:03.883Z,76.44
2023-04-27T10:59:32.309Z,76.82
2023-04-27T11:02:00.679Z,76.15
2023-04-27T11:04:41.910Z,78.13
2023-04-27T11:07:11.298Z,76.82
2023-04-27T11:09:40.641Z,78.86
2023-04-27T11:12:10.241Z,76.97
2023-04-27T11:14:38.710Z,74.55
2023-04-27T11:17:06.986Z,76.23
2023-04-27T11:19:47.917Z,76.38
2023-04-27T11:22:17.860Z,75.28
2023-04-27T11:24:50.571Z,78.21
2023-04-27T11:27:20.039Z,75.57
2023-04-27T11:29:48.300Z,75.87
2023-04-27T11:32:26.612Z,71.93
2023-04-27T11:34:57.797Z,74.38
2023-04-27T11:37:28.577Z,73.99
2023-04-27T11:40:01.438Z,74.04
2023-04-27T11:42:30.914Z,72.68
2023-04-27T11:45:01.309Z,72.21
2023-04-27T11:47:30.831Z,72.66
2023-04-27T11:50:04.865Z,74.01
2023-04-27T11:52:34.527Z,73.28
2023-04-27T11:55:04.689Z,72.10
2023-04-27T11:57:35.875Z,72.97
2023-04-27T12:00:10.995Z,72.76
2023-04-27T12:02:44.142Z,72.58
2023-04-27T12:05:14.761Z,73.02
2023-04-27T12:07:43.535Z,73.68
2023-04-27T12:10:12.515Z,70.53
2023-04-27T12:12:40.750Z,70.93
2023-04-27T12:15:10.227Z,68.83
2023-04-27T12:17:39.274Z,68.71
2023-04-27T12:20:08.779Z,67.86
2023-04-27T12:22:38.745Z,69.16
2023-04-27T12:25:07.734Z,71.03
2023-04-27T12:27:36.054Z,69.71
2023-04-27T12:30:04.857Z,70.28
2023-04-27T12:32:33.212Z,69.00
2023-04-27T12:35:01.637Z,67.48
2023-04-27T12:37:30.052Z,66.61
2023-04-27T12:39:59.886Z,66.69
2023-04-27T12:42:28.182Z,66.53
2023-04-27T12:44:56.955Z,67.10
2023-04-27T12:47:42.986Z,68.22
2023-04-27T12:50:13.846Z,69.87
2023-04-27T12:52:42.078Z,67.75
2023-04-27T12:55:21.493Z,66.53
2023-04-27T12:58:00.244Z,66.08
2023-04-27T13:00:29.499Z,65.40
2023-04-27T13:02:58.432Z,65.81
2023-04-27T13:05:27.570Z,67.94
2023-04-27T13:07:56.981Z,68.97
2023-04-27T13:10:26.610Z,67.65
2023-04-27T13:12:55.808Z,66.22
2023-04-27T13:15:24.024Z,64.89
2023-04-27T13:17:53.239Z,66.77
2023-04-27T13:20:21.763Z,66.27
2023-04-27T13:22:50.040Z,63.52
2023-04-27T13:25:20.136Z,64.47
2023-04-27T13:27:50.231Z,64.69
2023-04-27T13:30:18.531Z,64.82
2023-04-27T13:32:46.807Z,67.15
2023-04-27T13:35:15.868Z,65.66
2023-04-27T13:37:44.301Z,64.31
2023-04-27T13:40:13.114Z,64.16
2023-04-27T13:42:41.707Z,63.46
2023-04-27T13:45:12.126Z,63.97
2023-04-27T13:47:40.930Z,64.51
2023-04-27T13:50:11.571Z,64.94
2023-04-27T13:52:42.650Z,63.42
2023-04-27T13:55:12.093Z,61.22
2023-04-27T13:57:40.546Z,62.86
2023-04-27T14:00:11.521Z,63.02
2023-04-27T14:02:41.481Z,62.94
2023-04-27T14:05:10.321Z,63.73
2023-04-27T14:07:38.605Z,63.44
2023-04-27T14:10:08.297Z,62.87
2023-04-27T14:12:37.157Z,60.99
2023-04-27T14:15:06.231Z,61.82
2023-04-27T14:17:34.694Z,60.62
2023-04-27T14:20:07.099Z,61.41
2023-04-27T14:22:35.982Z,62.33
2023-04-27T14:25:04.282Z,61.28
2023-04-27T14:27:32.629Z,60.41
2023-04-27T14:30:02.144Z,61.65
2023-04-27T14:32:30.407Z,62.44
2023-04-27T14:34:58.620Z,63.66
2023-04-27T14:37:28.240Z,63.69
2023-04-27T14:39:57.836Z,64.92
2023-04-27T14:42:26.057Z,65.99
2023-04-27T14:44:54.259Z,66.24
2023-04-27T14:47:22.720Z,65.92
2023-04-27T14:49:51.292Z,65.40
2023-04-27T14:52:19.500Z,65.09
2023-04-27T14:54:49.132Z,65.33
2023-04-27T14:57:17.561Z,65.09
2023-04-27T14:59:45.768Z,63.20
2023-04-27T15:02:14.078Z,65.73
2023-04-27T15:04:42.357Z,64.94
2023-04-27T15:07:11.102Z,63.82
2023-04-27T15:09:39.354Z,62.95
2023-04-27T15:12:09.893Z,60.65
2023-04-27T15:14:38.184Z,61.99
2023-04-27T15:17:06.541Z,62.00
2023-04-27T15:19:35.046Z,62.71
2023-04-27T15:22:03.297Z,62.32
2023-04-27T15:24:31.655Z,62.46
2023-04-27T15:26:59.891Z,62.34
2023-04-27T15:29:29.483Z,63.27
2023-04-27T15:31:57.750Z,63.16
2023-04-27T15:34:25.949Z,63.15
2023-04-27T15:36:54.158Z,62.78
2023-04-27T15:39:22.410Z,63.92
2023-04-27T15:41:50.772Z,61.68
2023-04-27T15:44:19.026Z,63.60
2023-04-27T15:46:48.784Z,62.79
2023-04-27T15:49:17.005Z,63.98
2023-04-27T15:51:45.258Z,65.66
2023-04-27T15:54:13.461Z,65.10
2023-04-27T15:56:41.698Z,64.91
2023-04-27T15:59:09.965Z,64.78
2023-04-27T16:01:38.279Z,65.76
2023-04-27T16:04:08.135Z,65.49
2023-04-27T16:06:37.515Z,66.53
2023-04-27T16:09:08.996Z,66.56
2023-04-27T16:11:38.702Z,67.01
2023-04-27T16:14:07.031Z,67.09
2023-04-27T16:16:35.433Z,66.87
2023-04-27T16:19:03.844Z,66.74
2023-04-27T16:21:34.020Z,66.97
2023-04-27T16:24:02.302Z,67.91
2023-04-27T16:26:30.570Z,67.50
2023-04-27T16:28:58.897Z,66.98
2023-04-27T16:31:27.220Z,66.73
2023-04-27T16:33:55.598Z,68.09
2023-04-27T16:36:24.727Z,67.99
2023-04-27T16:38:54.412Z,68.24
2023-04-27T16:41:22.869Z,67.31
2023-04-27T16:43:51.455Z,67.15
2023-04-27T16:46:19.821Z,67.42
2023-04-27T16:48:48.221Z,68.16
2023-04-27T16:51:16.501Z,68.30
2023-04-27T16:53:44.675Z,69.42
2023-04-27T16:56:14.458Z,68.49
2023-04-27T16:58:42.731Z,69.22
2023-04-27T17:01:10.935Z,69.49
2023-04-27T17:03:39.283Z,69.22
2023-04-27T17:06:08.116Z,68.35
2023-04-27T17:08:36.380Z,71.10
2023-04-27T17:11:09.179Z,70.91
2023-04-27T17:13:39.018Z,69.50
2023-04-27T17:16:11.650Z,70.64
2023-04-27T17:18:40.075Z,70.52
2023-04-27T17:21:08.301Z,71.00
2023-04-27T17:23:36.877Z,70.08
2023-04-27T17:26:07.912Z,71.44
2023-04-27T17:28:37.993Z,70.54
2023-04-27T17:31:06.313Z,71.38
2023-04-27T17:33:34.550Z,70.81
2023-04-27T17:36:02.797Z,71.74
2023-04-27T17:38:31.231Z,70.87
2023-04-27T17:40:59.493Z,71.19
2023-04-27T17:43:27.759Z,72.76
2023-04-27T17:45:57.497Z,72.64
2023-04-27T17:48:25.864Z,72.69
2023-04-27T17:50:54.733Z,72.88
2023-04-27T17:53:22.989Z,73.03
2023-04-27T17:55:52.710Z,74.03
2023-04-27T17:58:21.018Z,72.70
2023-04-27T18:00:49.489Z,73.73
2023-04-27T18:03:19.353Z,73.47
2023-04-27T18:05:47.804Z,73.97
2023-04-27T18:08:16.098Z,74.52
2023-04-27T18:10:44.388Z,73.58
2023-04-27T18:13:13.043Z,73.32
2023-04-27T18:15:41.354Z,73.85
2023-04-27T18:18:10.526Z,74.04
2023-04-27T18:20:44.719Z,73.38
2023-04-27T18:23:13.019Z,74.16
2023-04-27T18:25:41.247Z,73.89
2023-04-27T18:28:09.512Z,74.27
2023-04-27T18:30:37.753Z,74.20
2023-04-27T18:33:06.273Z,74.73
2023-04-27T18:35:34.658Z,73.31
2023-04-27T18:38:04.327Z,75.45
2023-04-27T18:40:36.162Z,75.42
2023-04-27T18:43:04.435Z,74.83
2023-04-27T18:45:32.791Z,74.68
2023-04-27T18:48:01.244Z,74.31
2023-04-27T18:50:29.716Z,75.63
2023-04-27T18:52:59.888Z,75.30
2023-04-27T18:55:29.504Z,75.36
2023-04-27T18:57:57.785Z,74.96
2023-04-27T19:00:26.364Z,75.75
2023-04-27T19:02:54.854Z,75.38
2023-04-27T19:05:23.449Z,75.61
2023-04-27T19:07:51.951Z,76.12
2023-04-27T19:10:20.374Z,76.15
2023-04-27T19:12:49.973Z,76.44
2023-04-27T19:15:18.539Z,75.99
2023-04-27T19:17:48.678Z,76.08
2023-04-27T19:20:21.627Z,75.97
2023-04-27T19:22:49.838Z,76.37
2023-04-27T19:25:18.216Z,77.89
2023-04-27T19:27:46.961Z,75.95
2023-04-27T19:30:16.753Z,77.59
2023-04-27T19:32:45.058Z,77.84
2023-04-27T19:35:14.711Z,78.48
2023-04-27T19:37:42.978Z,77.70
2023-04-27T19:40:12.334Z,79.37
2023-04-27T19:42:40.698Z,77.95
2023-04-27T19:45:09.684Z,78.47
2023-04-27T19:47:39.519Z,78.54
2023-04-27T19:50:08.593Z,78.82
2023-04-27T19:52:36.891Z,78.29
2023-04-27T19:55:05.681Z,79.85
2023-04-27T19:57:34.272Z,78.72
2023-04-27T20:00:02.637Z,78.88
2023-04-27T20:02:43.326Z,79.78
2023-04-27T20:05:13.490Z,80.36
2023-04-27T20:07:42.661Z,80.87
2023-04-27T20:10:11.180Z,80.71
2023-04-27T20:12:55.330Z,81.89
2023-04-27T20:15:24.285Z,83.07
2023-04-27T20:17:54.078Z,83.45
2023-04-27T20:20:22.743Z,83.74
2023-04-27T20:22:51.399Z,84.12
2023-04-27T20:25:20.336Z,84.40
2023-04-27T20:27:48.670Z,84.10
2023-04-27T20:30:17.743Z,84.88
2023-04-27T20:32:46.658Z,83.45
2023-04-27T20:35:16.344Z,83.90
2023-04-27T20:37:44.617Z,84.40
2023-04-27T20:40:17.526Z,84.97
2023-04-27T20:42:46.422Z,86.28
2023-04-27T20:45:14.693Z,86.80
2023-04-27T20:47:43.244Z,87.80
2023-04-27T20:50:11.937Z,88.96
2023-04-27T20:52:41.606Z,88.32
2023-04-27T20:55:10.199Z,88.37
2023-04-27T20:57:38.436Z,88.04
2023-04-27T21:00:09.221Z,88.61
2023-04-27T21:02:37.761Z,88.04
2023-04-27T21:05:06.407Z,88.41
2023-04-27T21:07:37.663Z,90.77
2023-04-27T21:10:08.544Z,92.79
2023-04-27T21:12:36.842Z,93.77
2023-04-27T21:15:05.620Z,95.24
2023-04-27T21:17:34.544Z,97.54
2023-04-27T21:20:02.970Z,96.92
2023-04-27T21:22:31.330Z,96.52
2023-04-27T21:24:59.527Z,96.46
2023-04-27T21:27:30.678Z,97.76
2023-04-27T21:30:00.143Z,98.24
2023-04-27T21:32:28.453Z,96.50
2023-04-27T21:34:56.706Z,97.71
2023-04-27T21:37:24.976Z,95.97
2023-04-27T21:39:53.252Z,98.91
2023-04-27T21:42:21.512Z,98.68
2023-04-27T21:44:51.274Z,98.00
2023-04-27T21:47:19.613Z,98.41
2023-04-27T21:49:47.815Z,97.92
2023-04-27T21:52:16.157Z,99.15
2023-04-27T21:54:44.418Z,98.44
2023-04-27T21:57:12.645Z,98.42
2023-04-27T21:59:40.973Z,98.39
2023-04-27T22:02:10.888Z,98.58
2023-04-27T22:04:39.633Z,99.76
2023-04-27T22:07:08.959Z,98.71
2023-04-27T22:09:37.489Z,96.07
2023-04-27T22:12:06.560Z,98.66
2023-04-27T22:14:34.986Z,98.98
2023-04-27T22:17:03.232Z,98.10
2023-04-27T22:19:32.906Z,99.50
2023-04-27T22:22:01.235Z,98.57
2023-04-27T22:24:29.511Z,99.87
2023-04-27T22:26:57.737Z,98.27
2023-04-27T22:29:26.725Z,98.87
2023-04-27T22:31:55.232Z,99.10
2023-04-27T22:34:23.738Z,99.19
2023-04-27T22:36:54.174Z,95.59
2023-04-27T22:39:22.880Z,98.88
2023-04-27T22:41:51.561Z,98.55
2023-04-27T22:44:19.784Z,97.16
2023-04-27T22:46:48.087Z,97.72
2023-04-27T22:49:17.335Z,99.01
2023-04-27T22:51:47.201Z,100.04
2023-04-27T22:54:17.333Z,94.82
2023-04-27T22:56:45.909Z,96.23
2023-04-27T22:59:14.165Z,98.09
2023-04-27T23:01:42.439Z,97.11
2023-04-27T23:04:12.280Z,96.48
2023-04-27T23:06:40.921Z,99.38
2023-04-27T23:09:09.157Z,98.68
2023-04-27T23:11:40.257Z,97.13
2023-04-27T23:14:08.627Z,98.93
2023-04-27T23:16:37.305Z,100.16
2023-04-27T23:19:05.644Z,97.88
2023-04-27T23:21:33.835Z,97.89
2023-04-27T23:24:02.172Z,97.74
2023-04-27T23:26:30.498Z,98.71
2023-04-27T23:29:00.141Z,100.67
2023-04-27T23:31:28.459Z,99.17
2023-04-27T23:33:56.710Z,97.28
2023-04-27T23:36:25.047Z,98.35
2023-04-27T23:38:54.032Z,97.91
2023-04-27T23:41:23.361Z,96.91
2023-04-27T23:43:51.636Z,97.71
2023-04-27T23:46:21.295Z,99.55
2023-04-27T23:48:49.627Z,98.13
2023-04-27T23:51:17.878Z,99.67
2023-04-27T23:53:46.164Z,99.33
2023-04-27T23:56:18.601Z,100.18
2023-04-27T23:58:46.928Z,99.19
